createdAt,value
2018-03-08T00:01:13.569Z,27.33
2018-03-08T00:04:19.137Z,28.00
2018-03-08T00:07:24.680Z,25.03
2018-03-08T00:10:30.183Z,28.07
2018-03-08T00:13:35.492Z,27.47
2018-03-08T00:16:41.001Z,24.53
2018-03-08T00:19:46.558Z,25.93
2018-03-08T00:22:52.068Z,27.40
2018-03-08T00:25:57.628Z,27.03
2018-03-08T00:29:03.139Z,25.00
2018-03-08T00:32:08.686Z,26.30
2018-03-08T00:35:13.991Z,26.70
2018-03-08T00:38:19.504Z,26.47
2018-03-08T00:41:25.056Z,26.53
2018-03-08T00:44:30.589Z,29.10
2018-03-08T00:47:36.531Z,27.43
2018-03-08T00:50:45.506Z,28.00
2018-03-08T00:53:50.809Z,26.73
2018-03-08T00:56:56.309Z,27.47
2018-03-08T01:00:01.863Z,26.27
2018-03-08T01:03:07.447Z,28.00
2018-03-08T01:06:12.700Z,27.10
2018-03-08T01:09:18.030Z,27.43
2018-03-08T01:12:23.540Z,26.33
2018-03-08T01:15:29.121Z,25.23
2018-03-08T01:18:34.656Z,26.47
2018-03-08T01:21:40.199Z,26.80
2018-03-08T01:24:45.768Z,26.03
2018-03-08T01:27:51.489Z,27.63
2018-03-08T01:30:57.016Z,26.37
2018-03-08T01:34:02.582Z,25.70
2018-03-08T01:37:08.129Z,25.63
2018-03-08T01:40:13.641Z,26.40
2018-03-08T01:43:19.197Z,24.60
2018-03-08T01:46:24.880Z,25.90
2018-03-08T01:53:32.912Z,23.90
2018-03-08T01:56:54.610Z,25.80
2018-03-08T02:00:07.646Z,24.03
2018-03-08T02:03:18.949Z,23.67
2018-03-08T02:06:27.533Z,23.60
2018-03-08T02:09:35.746Z,23.37
2018-03-08T02:12:42.616Z,23.43
2018-03-08T02:15:50.338Z,24.50
2018-03-08T02:18:57.385Z,21.23
2018-03-08T02:22:05.495Z,24.30
2018-03-08T02:25:11.262Z,23.60
2018-03-08T02:28:16.772Z,23.17
2018-03-08T02:31:22.337Z,22.27
2018-03-08T02:34:27.868Z,23.63
2018-03-08T02:37:33.450Z,21.77
2018-03-08T02:40:43.429Z,23.20
2018-03-08T02:43:48.967Z,22.97
2018-03-08T02:46:54.472Z,24.27
2018-03-08T02:50:00.009Z,23.63
2018-03-08T02:53:05.508Z,23.87
2018-03-08T02:56:11.065Z,23.80
2018-03-08T02:59:16.564Z,22.20
2018-03-08T03:02:22.100Z,23.17
2018-03-08T03:05:27.414Z,20.63
2018-03-08T03:08:32.953Z,21.83
2018-03-08T03:11:38.594Z,20.63
2018-03-08T03:14:44.194Z,22.93
2018-03-08T03:17:49.728Z,21.87
2018-03-08T03:20:55.227Z,21.93
2018-03-08T03:24:00.778Z,21.50
2018-03-08T03:27:06.372Z,21.70
2018-03-08T03:30:11.930Z,22.23
2018-03-08T03:33:17.450Z,22.17
2018-03-08T03:36:23.010Z,21.87
2018-03-08T03:39:28.513Z,21.87
2018-03-08T03:42:34.066Z,22.67
2018-03-08T03:45:39.579Z,22.57
2018-03-08T03:48:45.135Z,23.67
2018-03-08T03:51:50.637Z,22.33
2018-03-08T03:54:56.193Z,21.53
2018-03-08T03:58:01.697Z,21.47
2018-03-08T04:01:08.247Z,21.67
2018-03-08T04:04:13.774Z,22.07
2018-03-08T04:07:19.334Z,21.07
2018-03-08T04:10:24.844Z,21.00
2018-03-08T04:13:30.411Z,21.70
2018-03-08T04:16:35.907Z,22.73
2018-03-08T04:19:41.468Z,20.70
2018-03-08T04:22:46.973Z,23.17
2018-03-08T04:25:52.534Z,24.10
2018-03-08T04:28:58.036Z,24.23
2018-03-08T04:32:03.621Z,23.70
2018-03-08T04:35:09.211Z,23.87
2018-03-08T04:38:14.760Z,23.77
2018-03-08T04:41:20.274Z,26.60
2018-03-08T04:44:25.842Z,26.30
2018-03-08T04:47:31.347Z,26.57
2018-03-08T04:50:36.899Z,25.53
2018-03-08T04:53:42.485Z,26.17
2018-03-08T04:56:48.002Z,28.50
2018-03-08T04:59:53.577Z,27.70
2018-03-08T05:02:59.095Z,25.60
2018-03-08T05:06:04.633Z,26.90
2018-03-08T05:09:10.165Z,27.27
2018-03-08T05:12:16.078Z,26.37
2018-03-08T05:15:21.324Z,27.97
2018-03-08T05:18:26.918Z,26.60
2018-03-08T05:21:32.425Z,26.70
2018-03-08T05:24:37.981Z,27.30
2018-03-08T05:27:45.034Z,26.87
2018-03-08T05:30:54.011Z,26.47
2018-03-08T05:34:01.301Z,25.77
2018-03-08T05:37:06.832Z,27.50
2018-03-08T05:40:12.382Z,28.10
2018-03-08T05:43:19.042Z,27.23
2018-03-08T05:46:25.021Z,29.03
2018-03-08T05:49:30.581Z,27.07
2018-03-08T05:52:36.422Z,26.50
2018-03-08T05:55:42.438Z,25.20
2018-03-08T05:58:48.121Z,27.63
2018-03-08T06:01:55.537Z,25.57
2018-03-08T06:05:03.791Z,26.83
2018-03-08T06:08:10.130Z,25.20
2018-03-08T06:11:15.777Z,26.00
2018-03-08T06:14:21.334Z,26.83
2018-03-08T06:17:26.854Z,27.13
2018-03-08T06:20:32.399Z,27.90
2018-03-08T06:23:37.957Z,26.40
2018-03-08T06:26:50.954Z,26.03
2018-03-08T06:29:56.353Z,25.13
2018-03-08T06:33:01.853Z,25.40
2018-03-08T06:36:07.385Z,25.23
2018-03-08T06:39:12.925Z,26.70
2018-03-08T06:42:18.469Z,24.53
2018-03-08T06:45:23.977Z,26.43
2018-03-08T06:48:29.568Z,25.57
2018-03-08T06:51:35.082Z,26.47
2018-03-08T06:54:40.746Z,27.33
2018-03-08T06:57:46.260Z,28.10
2018-03-08T07:00:51.828Z,27.07
2018-03-08T07:03:57.374Z,27.80
2018-03-08T07:07:02.878Z,27.30
2018-03-08T07:10:08.420Z,29.30
2018-03-08T07:13:13.945Z,29.03
2018-03-08T07:16:19.488Z,29.50
2018-03-08T07:19:25.045Z,28.30
2018-03-08T07:22:30.576Z,28.73
2018-03-08T07:25:36.339Z,28.77
2018-03-08T07:28:41.859Z,27.50
2018-03-08T07:31:47.409Z,27.97
2018-03-08T07:34:52.949Z,31.17
2018-03-08T07:37:58.452Z,31.97
2018-03-08T07:41:04.006Z,30.37
2018-03-08T07:44:09.561Z,33.43
2018-03-08T07:47:15.081Z,31.60
2018-03-08T07:50:20.628Z,32.83
2018-03-08T07:53:26.137Z,31.80
2018-03-08T07:56:31.693Z,33.40
2018-03-08T07:59:37.214Z,33.10
2018-03-08T08:02:42.769Z,34.47
2018-03-08T08:05:59.167Z,33.40
2018-03-08T08:09:09.889Z,30.83
2018-03-08T08:12:15.452Z,31.87
2018-03-08T08:15:20.999Z,31.60
2018-03-08T08:18:26.507Z,27.70
2018-03-08T08:21:32.049Z,30.10
2018-03-08T08:24:37.553Z,28.97
2018-03-08T08:27:44.331Z,29.20
2018-03-08T08:30:49.829Z,26.80
2018-03-08T08:33:55.385Z,23.83
2018-03-08T08:37:00.926Z,25.90
2018-03-08T08:40:06.471Z,22.90
2018-03-08T08:43:12.026Z,22.73
2018-03-08T08:46:17.521Z,19.03
2018-03-08T08:49:23.061Z,19.50
2018-03-08T08:52:28.646Z,19.20
2018-03-08T08:55:34.165Z,17.40
2018-03-08T08:58:39.733Z,16.63
2018-03-08T09:01:45.238Z,14.50
2018-03-08T09:04:50.786Z,13.70
2018-03-08T09:07:56.293Z,14.07
2018-03-08T09:11:01.844Z,13.00
2018-03-08T09:14:07.442Z,12.80
2018-03-08T09:17:12.961Z,11.27
2018-03-08T09:20:18.510Z,13.60
2018-03-08T09:23:24.020Z,12.93
2018-03-08T09:26:29.589Z,10.90
2018-03-08T09:29:35.154Z,12.00
2018-03-08T09:32:40.642Z,12.03
2018-03-08T09:35:46.184Z,10.87
2018-03-08T09:38:51.684Z,11.93
2018-03-08T09:41:57.248Z,10.63
2018-03-08T09:45:02.824Z,10.17
2018-03-08T09:48:08.880Z,12.83
2018-03-08T09:51:14.425Z,12.90
2018-03-08T09:54:19.967Z,11.37
2018-03-08T09:57:25.515Z,11.50
2018-03-08T10:00:31.050Z,10.77
2018-03-08T10:03:36.558Z,11.80
2018-03-08T10:06:42.110Z,10.93
2018-03-08T10:09:47.617Z,12.40
2018-03-08T10:12:53.191Z,12.53
2018-03-08T10:15:58.756Z,12.73
2018-03-08T10:19:04.302Z,13.70
2018-03-08T10:22:09.615Z,13.77
2018-03-08T10:25:15.142Z,12.97
2018-03-08T10:28:20.682Z,13.50
2018-03-08T10:31:26.188Z,14.23
2018-03-08T10:34:31.737Z,13.33
2018-03-08T10:37:37.249Z,16.03
2018-03-08T10:40:46.272Z,17.77
2018-03-08T10:43:51.793Z,22.70
2018-03-08T10:46:57.352Z,22.60
2018-03-08T10:50:02.857Z,23.67
2018-03-08T10:53:08.397Z,21.43
2018-03-08T10:56:13.917Z,22.43
2018-03-08T10:59:19.455Z,20.97
2018-03-08T11:02:30.287Z,21.97
2018-03-08T11:05:41.095Z,22.20
2018-03-08T11:08:46.638Z,22.30
2018-03-08T11:11:52.141Z,19.13
2018-03-08T11:14:57.677Z,19.40
2018-03-08T11:18:03.189Z,20.33
2018-03-08T11:21:08.733Z,19.47
2018-03-08T11:24:14.240Z,20.70
2018-03-08T11:27:19.797Z,18.87
2018-03-08T11:30:25.313Z,17.30
2018-03-08T11:33:30.877Z,18.50
2018-03-08T11:36:36.385Z,18.43
2018-03-08T11:39:41.946Z,17.77
2018-03-08T11:42:47.502Z,18.07
2018-03-08T11:45:53.007Z,18.60
2018-03-08T11:48:58.562Z,17.67
2018-03-08T11:52:04.064Z,17.80
2018-03-08T11:55:09.611Z,16.70
2018-03-08T11:58:14.973Z,16.13
2018-03-08T12:01:20.505Z,17.90
2018-03-08T12:04:26.018Z,17.40
2018-03-08T12:07:31.569Z,17.80
2018-03-08T12:10:37.118Z,19.13
2018-03-08T12:13:42.630Z,18.97
2018-03-08T12:16:48.186Z,18.40
2018-03-08T12:19:53.916Z,18.57
2018-03-08T12:22:59.467Z,19.47
2018-03-08T12:26:04.971Z,18.93
2018-03-08T12:29:10.523Z,20.00
2018-03-08T12:32:16.035Z,18.93
2018-03-08T12:35:21.582Z,18.83
2018-03-08T12:38:27.232Z,17.97
2018-03-08T12:41:32.735Z,19.67
2018-03-08T12:44:38.089Z,19.73
2018-03-08T12:47:43.614Z,19.67
2018-03-08T12:50:49.182Z,18.50
2018-03-08T12:53:54.681Z,16.93
2018-03-08T12:57:00.240Z,18.63
2018-03-08T13:00:05.818Z,18.20
2018-03-08T13:03:11.335Z,18.43
2018-03-08T13:06:16.610Z,19.60
2018-03-08T13:09:22.121Z,17.87
2018-03-08T13:12:27.682Z,17.00
2018-03-08T13:15:33.240Z,17.50
2018-03-08T13:18:38.820Z,17.80
2018-03-08T13:21:44.118Z,19.40
2018-03-08T13:24:49.629Z,17.93
2018-03-08T13:27:55.171Z,17.20
2018-03-08T13:31:00.713Z,16.60
2018-03-08T13:34:06.210Z,17.43
2018-03-08T13:37:11.773Z,16.60
2018-03-08T13:40:17.328Z,17.23
2018-03-08T13:43:23.075Z,15.70
2018-03-08T13:46:28.595Z,15.70
2018-03-08T13:49:37.472Z,14.90
2018-03-08T13:52:43.032Z,14.60
2018-03-08T13:55:48.542Z,14.03
2018-03-08T13:58:54.134Z,13.67
2018-03-08T14:01:59.389Z,13.63
2018-03-08T14:05:04.647Z,12.10
2018-03-08T14:08:09.881Z,13.17
2018-03-08T14:11:15.445Z,12.60
2018-03-08T14:14:20.958Z,11.33
2018-03-08T14:17:26.517Z,11.27
2018-03-08T14:20:32.017Z,11.17
2018-03-08T14:23:37.806Z,10.70
2018-03-08T14:26:43.312Z,10.50
2018-03-08T14:29:48.867Z,9.50
2018-03-08T14:32:54.357Z,9.60
2018-03-08T14:36:00.130Z,9.40
2018-03-08T14:39:05.124Z,10.07
2018-03-08T14:42:10.726Z,9.97
2018-03-08T14:45:16.458Z,10.20
2018-03-08T14:48:21.960Z,11.10
2018-03-08T14:51:27.511Z,10.60
2018-03-08T14:54:33.026Z,9.27
2018-03-08T14:57:44.805Z,9.70
2018-03-08T15:00:50.352Z,8.80
2018-03-08T15:03:55.844Z,7.80
2018-03-08T15:07:01.386Z,7.50
2018-03-08T15:10:06.887Z,7.83
2018-03-08T15:13:12.433Z,8.10
2018-03-08T15:16:17.928Z,7.80
2018-03-08T15:19:23.465Z,7.87
2018-03-08T15:22:29.012Z,7.13
2018-03-08T15:25:34.507Z,8.87
2018-03-08T15:28:40.048Z,7.50
2018-03-08T15:31:45.562Z,7.60
2018-03-08T15:34:51.103Z,7.40
2018-03-08T15:37:56.630Z,6.87
2018-03-08T15:41:02.126Z,7.73
2018-03-08T15:44:07.665Z,7.10
2018-03-08T15:47:13.160Z,6.43
2018-03-08T15:50:18.693Z,6.20
2018-03-08T15:53:24.210Z,6.47
2018-03-08T15:56:29.748Z,6.80
2018-03-08T15:59:35.385Z,6.57
2018-03-08T16:02:40.870Z,5.97
2018-03-08T16:05:46.396Z,6.30
2018-03-08T16:09:06.960Z,6.20
2018-03-08T16:12:12.486Z,6.23
2018-03-08T16:15:18.649Z,6.23
2018-03-08T16:18:24.241Z,5.90
2018-03-08T16:21:42.603Z,6.27
2018-03-08T16:24:48.157Z,6.10
2018-03-08T16:27:58.082Z,5.90
2018-03-08T16:31:03.598Z,6.60
2018-03-08T16:34:09.198Z,6.10
2018-03-08T16:37:14.752Z,5.10
2018-03-08T16:40:31.708Z,4.23
2018-03-08T16:43:54.900Z,5.50
2018-03-08T16:47:31.909Z,4.70
2018-03-08T16:50:53.879Z,5.00
2018-03-08T16:54:30.231Z,4.80
2018-03-08T16:57:54.688Z,4.00
2018-03-08T17:01:20.741Z,4.30
2018-03-08T17:04:43.593Z,3.87
2018-03-08T17:08:06.555Z,3.53
2018-03-08T17:11:27.871Z,4.37
2018-03-08T17:14:50.530Z,3.23
2018-03-08T17:18:04.232Z,3.57
2018-03-08T17:21:21.143Z,3.47
2018-03-08T17:24:34.562Z,3.83
2018-03-08T17:28:06.770Z,3.30
2018-03-08T17:31:27.413Z,3.80
2018-03-08T17:34:47.223Z,3.53
2018-03-08T17:38:10.672Z,3.83
2018-03-08T17:41:37.044Z,3.50
2018-03-08T17:45:01.068Z,3.80
2018-03-08T17:48:26.386Z,4.07
2018-03-08T17:52:06.955Z,3.97
2018-03-08T17:55:25.604Z,2.90
2018-03-08T17:58:42.544Z,3.37
2018-03-08T18:01:57.643Z,2.93
2018-03-08T18:05:19.600Z,3.03
2018-03-08T18:08:43.278Z,2.60
2018-03-08T18:12:10.982Z,2.80
2018-03-08T18:15:25.968Z,2.70
2018-03-08T18:18:33.890Z,2.00
2018-03-08T18:21:39.454Z,2.10
2018-03-08T18:24:44.961Z,2.40
2018-03-08T18:27:50.520Z,2.40
2018-03-08T18:30:56.061Z,2.40
2018-03-08T18:34:01.515Z,1.87
2018-03-08T18:37:08.749Z,2.67
2018-03-08T18:40:14.278Z,2.60
2018-03-08T18:43:32.946Z,3.10
2018-03-08T18:46:49.284Z,3.90
2018-03-08T18:50:24.694Z,3.10
2018-03-08T18:53:47.251Z,3.20
2018-03-08T18:57:09.654Z,2.93
2018-03-08T19:00:37.890Z,2.70
2018-03-08T19:04:17.280Z,2.30
2018-03-08T19:07:35.334Z,2.23
2018-03-08T19:10:55.325Z,3.00
2018-03-08T19:14:18.406Z,3.27
2018-03-08T19:17:39.010Z,2.70
2018-03-08T19:21:15.650Z,2.90
2018-03-08T19:24:40.547Z,3.50
2018-03-08T19:28:20.279Z,3.70
2018-03-08T19:31:42.885Z,3.87
2018-03-08T19:35:01.372Z,4.40
2018-03-08T19:38:22.507Z,4.13
2018-03-08T19:41:41.714Z,3.80
2018-03-08T19:44:59.545Z,3.60
2018-03-08T19:48:13.437Z,3.17
2018-03-08T19:51:32.773Z,3.60
2018-03-08T19:54:58.391Z,4.43
2018-03-08T19:58:32.193Z,4.90
2018-03-08T20:01:50.414Z,4.90
2018-03-08T20:05:05.602Z,4.80
2018-03-08T20:08:27.730Z,4.93
2018-03-08T20:11:48.769Z,4.27
2018-03-08T20:15:00.392Z,3.97
2018-03-08T20:18:05.724Z,5.17
2018-03-08T20:21:11.226Z,4.50
2018-03-08T20:24:16.758Z,5.00
2018-03-08T20:27:23.447Z,4.87
2018-03-08T20:30:31.916Z,4.87
2018-03-08T20:33:38.918Z,4.97
2018-03-08T20:36:45.654Z,4.80
2018-03-08T20:39:53.661Z,4.90
2018-03-08T20:42:59.219Z,4.90
2018-03-08T20:46:04.761Z,4.37
2018-03-08T20:49:10.311Z,4.53
2018-03-08T20:52:15.806Z,3.87
2018-03-08T20:55:21.440Z,4.53
2018-03-08T20:58:27.184Z,4.40
2018-03-08T21:01:32.754Z,5.00
2018-03-08T21:04:38.369Z,5.30
2018-03-08T21:07:43.870Z,5.10
2018-03-08T21:10:49.401Z,4.47
2018-03-08T21:13:54.881Z,3.83
2018-03-08T21:17:00.410Z,3.27
2018-03-08T21:20:05.449Z,3.53
2018-03-08T21:23:10.654Z,3.10
2018-03-08T21:26:16.170Z,3.17
2018-03-08T21:29:22.016Z,2.80
2018-03-08T21:32:27.549Z,2.27
2018-03-08T21:35:33.068Z,2.73
2018-03-08T21:38:38.548Z,2.10
2018-03-08T21:41:44.114Z,1.80
2018-03-08T21:44:49.602Z,2.20
2018-03-08T21:47:55.132Z,1.90
2018-03-08T21:51:00.666Z,2.30
2018-03-08T21:54:06.156Z,1.50
2018-03-08T21:57:11.689Z,1.87
2018-03-08T22:00:17.179Z,1.63
2018-03-08T22:03:22.708Z,1.67
2018-03-08T22:06:28.042Z,2.03
2018-03-08T22:09:33.581Z,2.23
2018-03-08T22:12:39.070Z,1.47
2018-03-08T22:15:44.605Z,1.60
2018-03-08T22:18:50.125Z,1.73
2018-03-08T22:21:55.657Z,1.90
2018-03-08T22:25:01.134Z,1.60
2018-03-08T22:28:06.674Z,1.30
2018-03-08T22:31:12.161Z,1.40
2018-03-08T22:34:17.690Z,1.90
2018-03-08T22:37:23.177Z,2.17
2018-03-08T22:40:28.717Z,2.60
2018-03-08T22:43:36.933Z,2.07
2018-03-08T22:46:42.492Z,2.30
2018-03-08T22:49:48.174Z,2.33
2018-03-08T22:52:53.704Z,2.70
2018-03-08T22:55:59.191Z,2.97
2018-03-08T22:59:04.741Z,2.37
2018-03-08T23:02:09.984Z,2.57
2018-03-08T23:05:15.268Z,3.17
2018-03-08T23:08:26.864Z,3.30
2018-03-08T23:11:32.390Z,3.80
2018-03-08T23:14:37.874Z,3.87
2018-03-08T23:17:43.467Z,3.70
2018-03-08T23:20:49.133Z,4.27
2018-03-08T23:23:54.678Z,4.50
2018-03-08T23:27:00.170Z,5.03
2018-03-08T23:30:05.720Z,4.57
2018-03-08T23:33:10.925Z,5.47
2018-03-08T23:36:16.211Z,5.70
2018-03-08T23:39:21.685Z,6.40
2018-03-08T23:42:27.224Z,5.67
2018-03-08T23:45:32.713Z,6.37
2018-03-08T23:48:38.242Z,5.90
2018-03-08T23:51:43.731Z,7.60
2018-03-08T23:54:49.265Z,6.80
2018-03-08T23:57:54.748Z,7.20
